Time;durP1;ratioP1;P1;durP2;ratioP2;P2;SDS_P1;SDS_P2;PMS_P1;PMS_P2;Temp;Humidity;BMP_temperature;BMP_pressure;BME280_temperature;BME280_humidity;BME280_pressure;Samples;Min_cycle;Max_cycle;Signal;HPM_P1;HPM_P2
2023/03/30 00:01:13;;;;;;;70.82;5.35;;;;;;;;;;5020214;28;20026;-61
2023/03/30 00:03:38;;;;;;;107.90;7.13;;;;;;;;;;5019503;28;20033;-59
2023/03/30 00:06:04;;;;;;;86.57;5.82;;;;;;;;;;5019148;28;20047;-58
2023/03/30 00:08:29;;;;;;;74.05;5.25;;;;;;;;;;5020576;28;20026;-61
2023/03/30 00:11:04;;;;;;;80.30;5.72;;;;;;;;;;5019581;28;20395;-61
2023/03/30 00:13:30;;;;;;;94.45;6.45;;;;;;;;;;5018609;28;20018;-60
2023/03/30 00:15:55;;;;;;;94.20;6.53;;;;;;;;;;5018892;28;20075;-60
2023/03/30 00:18:20;;;;;;;64.00;5.38;;;;;;;;;;5020557;28;20144;-61
2023/03/30 00:20:49;;;;;;;78.38;5.70;;;;;;;;;;5019627;28;20033;-60
2023/03/30 00:23:15;;;;;;;73.57;5.55;;;;;;;;;;5011295;28;20056;-61
2023/03/30 00:25:41;;;;;;;74.45;5.63;;;;;;;;;;5018557;28;20112;-61
2023/03/30 00:28:06;;;;;;;75.35;5.22;;;;;;;;;;5020149;28;20524;-60
2023/03/30 00:30:31;;;;;;;59.50;5.03;;;;;;;;;;5019323;28;20580;-59
2023/03/30 00:32:56;;;;;;;77.20;5.45;;;;;;;;;;5020262;28;20104;-59
2023/03/30 00:35:22;;;;;;;81.47;5.50;;;;;;;;;;5017313;28;20033;-59
2023/03/30 00:37:48;;;;;;;62.40;5.50;;;;;;;;;;5019915;28;20538;-59
2023/03/30 00:40:15;;;;;;;84.68;6.28;;;;;;;;;;5019760;28;20843;-56
2023/03/30 00:42:40;;;;;;;67.97;5.32;;;;;;;;;;5019589;28;20502;-58
2023/03/30 00:45:06;;;;;;;63.72;5.35;;;;;;;;;;5018917;28;20584;-59
2023/03/30 00:47:31;;;;;;;98.38;6.45;;;;;;;;;;5019408;28;20010;-58
2023/03/30 00:49:57;;;;;;;71.95;5.60;;;;;;;;;;5019824;28;20036;-59
2023/03/30 00:52:23;;;;;;;71.13;5.43;;;;;;;;;;5018583;28;20037;-57
2023/03/30 00:54:50;;;;;;;93.65;6.13;;;;;;;;;;5017845;28;20040;-58
2023/03/30 00:57:16;;;;;;;84.00;6.05;;;;;;;;;;5018789;28;20486;-58
2023/03/30 00:59:41;;;;;;;77.85;5.55;;;;;;;;;;5019094;28;20569;-58
2023/03/30 01:02:07;;;;;;;79.13;5.55;;;;;;;;;;5018475;28;20144;-56
2023/03/30 01:04:36;;;;;;;85.80;5.90;;;;;;;;;;5017735;28;20048;-58
2023/03/30 01:07:03;;;;;;;94.05;6.50;;;;;;;;;;5018579;28;20116;-59
2023/03/30 01:09:28;;;;;;;75.50;5.30;;;;;;;;;;5019147;28;20404;-59
2023/03/30 01:11:54;;;;;;;71.90;5.78;;;;;;;;;;5018639;28;20033;-59
2023/03/30 01:14:19;;;;;;;115.30;7.13;;;;;;;;;;5017849;28;20029;-59
2023/03/30 01:16:53;;;;;;;69.93;5.25;;;;;;;;;;5018681;28;20422;-57
2023/03/30 01:19:18;;;;;;;82.03;5.78;;;;;;;;;;5019127;28;20104;-59
2023/03/30 01:22:03;;;;;;;73.03;5.37;;;;;;;;;;5018759;28;20040;-59
2023/03/30 01:24:41;;;;;;;101.22;6.57;;;;;;;;;;5017345;28;20340;-59
2023/03/30 01:27:38;;;;;;;89.45;6.00;;;;;;;;;;5033084;28;20455;-58
2023/03/30 01:30:03;;;;;;;79.88;5.70;;;;;;;;;;5018885;28;20028;-60
2023/03/30 01:32:31;;;;;;;82.03;5.67;;;;;;;;;;5018172;28;20029;-59
2023/03/30 01:35:27;;;;;;;79.07;5.47;;;;;;;;;;5017551;28;20017;-58
2023/03/30 01:38:11;;;;;;;80.90;5.75;;;;;;;;;;5018582;28;20037;-59
2023/03/30 01:40:43;;;;;;;83.40;6.32;;;;;;;;;;5018195;28;20560;-59
2023/03/30 01:43:14;;;;;;;75.50;5.70;;;;;;;;;;5018253;28;20045;-60
2023/03/30 01:46:00;;;;;;;80.85;5.78;;;;;;;;;;5016345;28;20039;-58
2023/03/30 01:48:32;;;;;;;86.03;5.90;;;;;;;;;;5018399;28;20020;-60
2023/03/30 01:51:02;;;;;;;99.50;6.50;;;;;;;;;;5018123;28;20037;-58
2023/03/30 01:53:27;;;;;;;116.00;7.30;;;;;;;;;;5017650;28;20021;-58
2023/03/30 01:55:55;;;;;;;84.80;5.68;;;;;;;;;;5017093;28;20091;-58
2023/03/30 01:58:38;;;;;;;68.78;5.07;;;;;;;;;;5017490;28;20119;-57
2023/03/30 02:01:05;;;;;;;93.05;6.18;;;;;;;;;;5016070;28;20037;-58
2023/03/30 02:03:33;;;;;;;73.07;5.50;;;;;;;;;;5017532;28;20021;-59
2023/03/30 02:06:02;;;;;;;76.55;5.72;;;;;;;;;;5016409;28;20032;-59
2023/03/30 02:08:29;;;;;;;98.72;6.78;;;;;;;;;;5018406;28;20025;-59
2023/03/30 02:10:56;;;;;;;97.47;6.13;;;;;;;;;;5017454;28;20095;-58
2023/03/30 02:13:21;;;;;;;82.40;5.82;;;;;;;;;;5017338;28;20033;-58
2023/03/30 02:15:57;;;;;;;63.95;4.78;;;;;;;;;;5017001;28;20402;-60
2023/03/30 02:18:23;;;;;;;88.63;6.10;;;;;;;;;;5018174;28;20022;-59
2023/03/30 02:20:48;;;;;;;85.30;6.00;;;;;;;;;;5017560;28;20032;-58
2023/03/30 02:23:16;;;;;;;70.57;5.30;;;;;;;;;;5018006;28;20025;-59
2023/03/30 02:25:41;;;;;;;79.93;5.32;;;;;;;;;;5016306;28;20324;-58
2023/03/30 02:28:07;;;;;;;76.72;5.43;;;;;;;;;;5018267;28;20238;-58
2023/03/30 02:30:33;;;;;;;83.30;6.00;;;;;;;;;;5017359;28;20052;-59
2023/03/30 02:32:58;;;;;;;97.90;6.38;;;;;;;;;;5016522;28;20025;-57
2023/03/30 02:35:35;;;;;;;85.07;5.97;;;;;;;;;;5015886;28;20462;-58
2023/03/30 02:38:01;;;;;;;90.72;6.15;;;;;;;;;;5017995;28;20669;-60
2023/03/30 02:40:41;;;;;;;76.70;5.57;;;;;;;;;;5017684;28;20056;-59
2023/03/30 02:43:25;;;;;;;97.55;7.13;;;;;;;;;;5017615;28;20041;-59
2023/03/30 02:46:13;;;;;;;76.43;5.47;;;;;;;;;;5016477;28;20041;-59
2023/03/30 02:48:41;;;;;;;76.07;5.63;;;;;;;;;;5006511;28;20048;-57
2023/03/30 02:51:07;;;;;;;78.82;5.57;;;;;;;;;;5017777;28;20033;-58
2023/03/30 02:53:32;;;;;;;109.65;6.97;;;;;;;;;;5017865;28;20060;-59
2023/03/30 02:56:07;;;;;;;85.77;6.63;;;;;;;;;;5016950;28;20029;-56
2023/03/30 02:58:39;;;;;;;88.40;6.50;;;;;;;;;;5017624;28;20264;-58
2023/03/30 03:01:12;;;;;;;89.82;6.20;;;;;;;;;;5016403;28;20049;-58
2023/03/30 03:03:40;;;;;;;113.30;7.45;;;;;;;;;;5016824;28;20044;-59
2023/03/30 03:06:08;;;;;;;66.22;5.50;;;;;;;;;;5015972;28;20220;-58
2023/03/30 03:08:34;;;;;;;76.25;5.53;;;;;;;;;;5017238;28;20026;-58
2023/03/30 03:11:00;;;;;;;82.82;5.63;;;;;;;;;;5017423;28;20029;-58
2023/03/30 03:13:26;;;;;;;118.28;7.55;;;;;;;;;;5016800;28;20530;-58
2023/03/30 03:15:55;;;;;;;94.60;6.75;;;;;;;;;;5015411;28;20037;-58
2023/03/30 03:18:20;;;;;;;67.05;5.63;;;;;;;;;;5021470;28;20029;-58
2023/03/30 03:20:45;;;;;;;73.65;5.78;;;;;;;;;;5021082;28;20498;-58
2023/03/30 03:23:11;;;;;;;84.67;6.20;;;;;;;;;;5020999;28;20029;-58
2023/03/30 03:25:36;;;;;;;84.85;6.40;;;;;;;;;;5019956;28;20799;-59
2023/03/30 03:28:01;;;;;;;90.00;6.18;;;;;;;;;;5020991;28;20022;-59
2023/03/30 03:30:26;;;;;;;76.90;6.60;;;;;;;;;;5020581;28;20406;-58
2023/03/30 03:32:51;;;;;;;102.38;11.05;;;;;;;;;;5020645;28;20648;-58
2023/03/30 03:35:17;;;;;;;100.80;7.80;;;;;;;;;;5019169;28;20105;-59
2023/03/30 03:37:42;;;;;;;71.22;5.82;;;;;;;;;;5020847;28;20330;-58
2023/03/30 03:40:10;;;;;;;70.90;6.93;;;;;;;;;;5020915;28;20025;-58
2023/03/30 03:42:35;;;;;;;100.32;7.55;;;;;;;;;;5019678;28;20326;-60
2023/03/30 03:45:00;;;;;;;88.40;6.72;;;;;;;;;;5019704;28;20246;-58
2023/03/30 03:47:25;;;;;;;78.05;5.95;;;;;;;;;;5019733;28;20124;-60
2023/03/30 03:49:51;;;;;;;76.23;6.17;;;;;;;;;;5020562;28;20625;-60
2023/03/30 03:52:16;;;;;;;79.43;6.10;;;;;;;;;;5019857;28;20303;-60
2023/03/30 03:54:41;;;;;;;84.87;6.43;;;;;;;;;;5019096;28;20261;-60
2023/03/30 03:57:07;;;;;;;70.70;6.33;;;;;;;;;;5020006;28;20357;-60
2023/03/30 03:59:32;;;;;;;83.95;6.65;;;;;;;;;;5020663;28;20260;-60
2023/03/30 04:01:57;;;;;;;103.70;7.60;;;;;;;;;;5019402;28;20038;-60
2023/03/30 04:04:22;;;;;;;94.33;6.93;;;;;;;;;;5018877;28;20267;-61
2023/03/30 04:06:48;;;;;;;69.93;6.05;;;;;;;;;;5018041;28;20322;-58
2023/03/30 04:09:13;;;;;;;96.70;7.63;;;;;;;;;;5019612;28;20451;-58
2023/03/30 04:11:38;;;;;;;69.60;5.87;;;;;;;;;;5020023;28;20742;-57
2023/03/30 04:14:03;;;;;;;114.00;7.78;;;;;;;;;;5018959;28;20753;-56
2023/03/30 04:16:29;;;;;;;102.23;7.20;;;;;;;;;;5019572;28;20138;-57
2023/03/30 04:18:56;;;;;;;77.63;6.32;;;;;;;;;;5020364;28;20535;-58
2023/03/30 04:21:22;;;;;;;92.63;6.63;;;;;;;;;;5019698;28;20534;-61
2023/03/30 04:23:47;;;;;;;74.78;6.28;;;;;;;;;;5020014;28;20122;-56
2023/03/30 04:26:14;;;;;;;78.07;6.22;;;;;;;;;;5018990;28;20124;-59
2023/03/30 04:28:39;;;;;;;86.10;6.45;;;;;;;;;;5019587;28;20036;-58
2023/03/30 04:31:09;;;;;;;79.18;6.40;;;;;;;;;;5019479;28;20025;-59
2023/03/30 04:33:36;;;;;;;104.22;7.22;;;;;;;;;;5019515;28;20604;-57
2023/03/30 04:36:02;;;;;;;78.28;6.47;;;;;;;;;;5019102;28;20069;-58
2023/03/30 04:38:28;;;;;;;76.15;6.40;;;;;;;;;;5020613;28;20061;-59
2023/03/30 04:40:54;;;;;;;110.13;8.23;;;;;;;;;;5019383;28;20111;-59
2023/03/30 04:43:20;;;;;;;74.78;6.43;;;;;;;;;;5019900;28;20046;-57
2023/03/30 04:45:53;;;;;;;91.72;7.03;;;;;;;;;;5018932;28;20033;-59
2023/03/30 04:48:19;;;;;;;81.93;6.65;;;;;;;;;;5019472;28;20507;-59
2023/03/30 04:50:45;;;;;;;73.97;6.50;;;;;;;;;;5019174;28;20049;-59
2023/03/30 04:53:11;;;;;;;104.55;8.38;;;;;;;;;;5019418;28;20026;-59
2023/03/30 04:55:36;;;;;;;79.85;6.22;;;;;;;;;;5017859;28;20034;-59
2023/03/30 04:58:01;;;;;;;66.10;5.78;;;;;;;;;;5019189;28;20218;-58
2023/03/30 05:00:27;;;;;;;103.95;7.65;;;;;;;;;;5018164;28;20372;-59
2023/03/30 05:02:53;;;;;;;97.95;7.15;;;;;;;;;;5018892;28;20386;-59
2023/03/30 05:05:18;;;;;;;99.28;8.07;;;;;;;;;;5017048;28;20483;-59
2023/03/30 05:07:43;;;;;;;75.38;6.93;;;;;;;;;;5019033;28;20060;-58
2023/03/30 05:10:09;;;;;;;84.05;7.05;;;;;;;;;;5019255;28;20292;-58
2023/03/30 05:12:34;;;;;;;93.22;8.38;;;;;;;;;;5018442;28;20199;-59
2023/03/30 05:14:59;;;;;;;89.25;7.75;;;;;;;;;;5017822;28;20112;-58
2023/03/30 05:17:25;;;;;;;95.80;8.45;;;;;;;;;;5018278;28;20119;-59
2023/03/30 05:19:50;;;;;;;103.07;9.65;;;;;;;;;;5018975;28;20037;-60
2023/03/30 05:22:15;;;;;;;84.82;8.80;;;;;;;;;;5018305;28;20048;-59
2023/03/30 05:24:41;;;;;;;88.90;9.23;;;;;;;;;;5017985;28;20143;-59
2023/03/30 05:27:06;;;;;;;84.88;8.07;;;;;;;;;;5017800;28;20033;-58
2023/03/30 05:29:31;;;;;;;94.65;8.65;;;;;;;;;;5019565;28;20041;-58
2023/03/30 05:31:56;;;;;;;102.95;8.65;;;;;;;;;;5018729;28;20466;-59
2023/03/30 05:34:22;;;;;;;107.07;9.13;;;;;;;;;;5018291;28;20124;-58
2023/03/30 05:36:47;;;;;;;98.83;10.03;;;;;;;;;;5018588;28;20025;-63
2023/03/30 05:39:13;;;;;;;114.43;10.82;;;;;;;;;;5018145;28;20259;-58
2023/03/30 05:41:38;;;;;;;92.45;9.63;;;;;;;;;;5018568;28;20045;-58
2023/03/30 05:44:03;;;;;;;109.70;10.80;;;;;;;;;;5017765;28;20071;-58
2023/03/30 05:46:29;;;;;;;124.50;12.27;;;;;;;;;;5017697;28;20184;-58
2023/03/30 05:48:55;;;;;;;109.32;11.13;;;;;;;;;;5018265;28;20064;-58
2023/03/30 05:51:20;;;;;;;104.32;11.88;;;;;;;;;;5017849;28;20030;-59
2023/03/30 05:53:46;;;;;;;102.22;11.00;;;;;;;;;;5018160;28;20281;-56
2023/03/30 05:56:11;;;;;;;93.18;10.40;;;;;;;;;;5017607;28;20037;-56
2023/03/30 05:58:37;;;;;;;87.95;10.05;;;;;;;;;;5018819;28;20060;-57
2023/03/30 06:01:04;;;;;;;96.22;9.23;;;;;;;;;;5018124;28;20605;-56
2023/03/30 06:03:30;;;;;;;124.57;11.15;;;;;;;;;;5018199;28;20120;-58
2023/03/30 06:05:55;;;;;;;96.10;8.02;;;;;;;;;;5016880;28;20435;-58
2023/03/30 06:08:20;;;;;;;78.15;8.07;;;;;;;;;;5018339;28;20233;-58
2023/03/30 06:10:55;;;;;;;101.47;9.20;;;;;;;;;;5016995;28;20029;-58
2023/03/30 06:13:20;;;;;;;113.50;10.05;;;;;;;;;;5016788;28;20444;-57
2023/03/30 06:15:46;;;;;;;87.18;8.95;;;;;;;;;;5015959;28;20070;-59
2023/03/30 06:18:11;;;;;;;80.65;6.72;;;;;;;;;;5018099;28;20486;-59
2023/03/30 06:20:36;;;;;;;89.95;8.52;;;;;;;;;;5017526;28;20061;-59
2023/03/30 06:23:01;;;;;;;115.10;9.85;;;;;;;;;;5017079;28;20031;-58
2023/03/30 06:25:28;;;;;;;113.82;9.57;;;;;;;;;;5015527;28;20041;-58
2023/03/30 06:27:53;;;;;;;89.97;8.50;;;;;;;;;;5018033;28;20057;-58
2023/03/30 06:30:18;;;;;;;118.43;9.35;;;;;;;;;;5015684;28;20160;-58
2023/03/30 06:32:44;;;;;;;97.70;9.40;;;;;;;;;;5017897;28;20427;-58
2023/03/30 06:35:09;;;;;;;81.32;7.20;;;;;;;;;;5016280;28;20048;-57
2023/03/30 06:37:37;;;;;;;88.47;7.70;;;;;;;;;;5017711;28;20221;-58
2023/03/30 06:40:12;;;;;;;91.75;8.65;;;;;;;;;;5017935;28;20248;-58
2023/03/30 06:42:42;;;;;;;110.72;8.15;;;;;;;;;;5017338;28;20040;-58
2023/03/30 06:45:09;;;;;;;95.72;7.57;;;;;;;;;;5016443;28;20557;-58
2023/03/30 06:47:34;;;;;;;108.55;9.32;;;;;;;;;;5017075;28;20506;-58
2023/03/30 06:49:59;;;;;;;73.55;8.05;;;;;;;;;;5017343;28;20542;-58
2023/03/30 06:52:24;;;;;;;84.28;7.50;;;;;;;;;;5019796;28;20069;-59
2023/03/30 06:54:50;;;;;;;114.97;9.75;;;;;;;;;;5019644;28;20063;-58
2023/03/30 06:57:15;;;;;;;95.18;8.18;;;;;;;;;;5021121;28;20069;-58
2023/03/30 06:59:40;;;;;;;87.77;7.83;;;;;;;;;;5021592;28;20031;-57
2023/03/30 07:02:05;;;;;;;93.27;7.70;;;;;;;;;;5020429;28;20271;-57
2023/03/30 07:04:31;;;;;;;83.90;6.57;;;;;;;;;;5019727;28;20287;-57
2023/03/30 07:06:56;;;;;;;105.77;7.13;;;;;;;;;;5020291;28;20034;-56
2023/03/30 07:09:21;;;;;;;86.60;6.68;;;;;;;;;;5021526;28;20272;-57
2023/03/30 07:11:47;;;;;;;62.42;5.07;;;;;;;;;;5020730;28;20520;-57
2023/03/30 07:14:12;;;;;;;104.37;6.97;;;;;;;;;;5019277;28;20144;-57
2023/03/30 07:16:37;;;;;;;87.73;6.50;;;;;;;;;;5020282;28;20800;-57
2023/03/30 07:19:04;;;;;;;86.40;6.60;;;;;;;;;;5021146;28;20736;-58
2023/03/30 07:21:29;;;;;;;109.00;7.57;;;;;;;;;;5019867;28;20498;-58
2023/03/30 07:23:55;;;;;;;86.50;7.15;;;;;;;;;;5019727;28;20025;-57
2023/03/30 07:26:20;;;;;;;102.35;7.30;;;;;;;;;;5020416;28;20128;-58
2023/03/30 07:28:45;;;;;;;69.63;5.60;;;;;;;;;;5021710;28;20086;-58
2023/03/30 07:31:13;;;;;;;82.18;6.65;;;;;;;;;;5021119;28;20037;-56
2023/03/30 07:33:38;;;;;;;117.68;7.90;;;;;;;;;;5020864;28;20048;-58
2023/03/30 07:36:04;;;;;;;85.85;6.30;;;;;;;;;;5019263;28;20105;-57
2023/03/30 07:38:29;;;;;;;88.60;6.25;;;;;;;;;;5020760;28;20040;-58
2023/03/30 07:40:55;;;;;;;116.30;7.43;;;;;;;;;;5020240;28;20485;-59
2023/03/30 07:43:20;;;;;;;92.45;7.35;;;;;;;;;;5020885;28;20430;-57
2023/03/30 07:45:45;;;;;;;85.15;7.95;;;;;;;;;;5020231;28;20068;-57
2023/03/30 07:48:11;;;;;;;65.07;6.80;;;;;;;;;;5021382;28;20018;-58
2023/03/30 07:50:36;;;;;;;81.38;6.80;;;;;;;;;;5020928;28;20506;-59
2023/03/30 07:53:02;;;;;;;100.82;6.47;;;;;;;;;;5020856;28;20228;-57
2023/03/30 07:55:27;;;;;;;87.00;6.30;;;;;;;;;;5019856;28;20029;-59
2023/03/30 07:57:53;;;;;;;79.20;5.53;;;;;;;;;;5020609;28;20025;-58
2023/03/30 08:00:21;;;;;;;80.63;6.28;;;;;;;;;;5019198;28;20567;-58
2023/03/30 08:02:46;;;;;;;85.00;7.05;;;;;;;;;;5019734;28;20009;-59
2023/03/30 08:05:12;;;;;;;77.93;5.93;;;;;;;;;;5018257;28;20032;-60
2023/03/30 08:07:37;;;;;;;88.95;6.63;;;;;;;;;;5020386;28;20030;-59
2023/03/30 08:10:02;;;;;;;110.05;7.40;;;;;;;;;;5019400;28;20083;-58
2023/03/30 08:12:28;;;;;;;70.80;5.80;;;;;;;;;;5019640;28;20064;-57
2023/03/30 08:14:54;;;;;;;75.95;5.75;;;;;;;;;;5018669;28;20381;-57
2023/03/30 08:17:20;;;;;;;80.47;5.65;;;;;;;;;;5018825;28;20063;-58
2023/03/30 08:19:45;;;;;;;83.43;5.93;;;;;;;;;;5019908;28;20104;-58
2023/03/30 08:22:10;;;;;;;69.77;5.97;;;;;;;;;;5019607;28;20073;-58
2023/03/30 08:24:36;;;;;;;84.50;5.83;;;;;;;;;;5018659;28;20314;-58
2023/03/30 08:27:01;;;;;;;86.60;5.78;;;;;;;;;;5019415;28;20371;-59
2023/03/30 08:29:28;;;;;;;118.85;6.95;;;;;;;;;;5018498;28;20465;-58
2023/03/30 08:31:53;;;;;;;59.05;4.60;;;;;;;;;;5020233;28;20089;-58
2023/03/30 08:34:18;;;;;;;79.22;6.07;;;;;;;;;;5019558;28;20022;-57
2023/03/30 08:36:44;;;;;;;100.50;6.77;;;;;;;;;;5018684;28;20112;-58
2023/03/30 08:39:09;;;;;;;69.82;5.57;;;;;;;;;;5019408;28;20307;-58
2023/03/30 08:41:38;;;;;;;93.10;6.40;;;;;;;;;;5018825;28;20491;-58
2023/03/30 08:44:12;;;;;;;92.07;5.72;;;;;;;;;;5018475;28;20108;-58
2023/03/30 08:46:39;;;;;;;69.40;5.32;;;;;;;;;;5018535;28;20064;-58
2023/03/30 08:49:07;;;;;;;93.03;6.15;;;;;;;;;;5014331;28;20021;-59
2023/03/30 08:51:34;;;;;;;73.50;5.50;;;;;;;;;;5018823;28;20480;-57
2023/03/30 08:54:04;;;;;;;122.93;7.88;;;;;;;;;;5018212;28;20029;-59
2023/03/30 08:56:34;;;;;;;61.70;4.78;;;;;;;;;;5018438;28;20069;-59
2023/03/30 08:58:59;;;;;;;74.57;5.57;;;;;;;;;;5018681;28;20022;-59
2023/03/30 09:01:33;;;;;;;100.90;6.43;;;;;;;;;;5017654;28;20037;-58
2023/03/30 09:03:58;;;;;;;109.32;7.95;;;;;;;;;;5017625;28;20313;-58
2023/03/30 09:06:23;;;;;;;92.33;6.40;;;;;;;;;;5017947;28;20298;-59
2023/03/30 09:08:49;;;;;;;72.63;6.10;;;;;;;;;;5019056;28;20529;-60
2023/03/30 09:11:20;;;;;;;64.47;5.10;;;;;;;;;;5018343;28;20041;-56
2023/03/30 09:13:46;;;;;;;71.30;5.45;;;;;;;;;;5018541;28;20018;-56
2023/03/30 09:16:21;;;;;;;77.90;6.07;;;;;;;;;;5017573;28;20034;-57
2023/03/30 09:18:53;;;;;;;77.43;6.05;;;;;;;;;;5018408;28;20364;-58
2023/03/30 09:21:21;;;;;;;92.25;6.88;;;;;;;;;;5018355;28;20298;-58
2023/03/30 09:23:47;;;;;;;75.43;6.32;;;;;;;;;;5018396;28;20040;-58
2023/03/30 09:26:12;;;;;;;70.97;5.88;;;;;;;;;;5017701;28;20546;-57
2023/03/30 09:28:37;;;;;;;91.20;6.13;;;;;;;;;;5021826;28;20314;-58
2023/03/30 09:31:02;;;;;;;84.63;6.43;;;;;;;;;;5018364;28;20288;-58
2023/03/30 09:33:40;;;;;;;110.32;7.93;;;;;;;;;;5018495;28;20022;-58
2023/03/30 09:36:24;;;;;;;90.55;6.93;;;;;;;;;;5017175;28;20034;-59
2023/03/30 09:38:50;;;;;;;80.72;6.63;;;;;;;;;;5018593;28;20095;-58
2023/03/30 09:41:28;;;;;;;68.65;6.15;;;;;;;;;;5017759;28;20535;-59
2023/03/30 09:43:55;;;;;;;87.68;7.72;;;;;;;;;;5017468;28;20116;-58
2023/03/30 09:46:20;;;;;;;84.28;6.40;;;;;;;;;;5017630;28;20033;-58
2023/03/30 09:48:47;;;;;;;71.65;6.22;;;;;;;;;;5016950;28;20040;-59
2023/03/30 09:51:18;;;;;;;96.57;7.63;;;;;;;;;;5017524;28;20561;-59
2023/03/30 09:53:44;;;;;;;80.00;6.38;;;;;;;;;;5017550;28;20037;-59
2023/03/30 09:56:16;;;;;;;87.22;7.85;;;;;;;;;;5016358;28;20084;-57
2023/03/30 09:58:41;;;;;;;53.95;5.88;;;;;;;;;;5018306;28;20147;-59
2023/03/30 10:01:11;;;;;;;72.65;6.93;;;;;;;;;;5017763;28;20029;-59
2023/03/30 10:03:36;;;;;;;118.88;9.13;;;;;;;;;;5016997;28;20494;-59
2023/03/30 10:06:04;;;;;;;71.72;6.32;;;;;;;;;;5015808;28;20098;-58
2023/03/30 10:08:29;;;;;;;97.95;8.23;;;;;;;;;;5016732;28;20075;-58
2023/03/30 10:10:55;;;;;;;78.78;6.97;;;;;;;;;;5016590;28;20485;-57
2023/03/30 10:13:26;;;;;;;74.30;7.15;;;;;;;;;;5016714;28;20061;-57
2023/03/30 10:15:52;;;;;;;106.57;8.35;;;;;;;;;;5015274;28;20537;-59
2023/03/30 10:18:23;;;;;;;72.03;4.93;;;;;;;;;;5017432;28;20025;-59
2023/03/30 10:21:04;;;;;;;84.20;5.63;;;;;;;;;;5016468;28;20060;-59
2023/03/30 10:23:32;;;;;;;100.63;6.65;;;;;;;;;;5016457;28;20592;-59
2023/03/30 10:26:02;;;;;;;98.25;7.47;;;;;;;;;;5014571;28;20095;-59
2023/03/30 10:28:29;;;;;;;75.13;5.60;;;;;;;;;;5019005;28;20393;-59
2023/03/30 10:30:56;;;;;;;84.20;6.53;;;;;;;;;;5020175;28;20546;-60
2023/03/30 10:33:22;;;;;;;94.32;6.68;;;;;;;;;;5019882;28;20582;-59
2023/03/30 10:35:50;;;;;;;76.50;5.60;;;;;;;;;;5019175;28;20067;-59
2023/03/30 10:38:16;;;;;;;83.78;6.13;;;;;;;;;;5020058;28;20055;-59
2023/03/30 10:40:42;;;;;;;69.90;5.45;;;;;;;;;;5019657;28;20493;-59
2023/03/30 10:43:16;;;;;;;83.53;6.32;;;;;;;;;;5020427;28;20033;-60
2023/03/30 10:45:50;;;;;;;67.28;5.40;;;;;;;;;;5018770;28;20198;-59
2023/03/30 10:48:34;;;;;;;82.22;6.32;;;;;;;;;;5020280;28;20057;-58
2023/03/30 10:51:06;;;;;;;67.25;6.18;;;;;;;;;;5019969;28;20033;-59
2023/03/30 10:53:54;;;;;;;107.78;8.25;;;;;;;;;;5019841;28;20320;-59
2023/03/30 10:56:30;;;;;;;80.82;6.57;;;;;;;;;;5019286;28;20128;-59
2023/03/30 10:59:04;;;;;;;101.80;7.65;;;;;;;;;;5019790;28;20021;-57
2023/03/30 11:01:41;;;;;;;70.93;6.68;;;;;;;;;;5019538;28;20034;-60
2023/03/30 11:04:10;;;;;;;117.82;8.32;;;;;;;;;;4980985;28;1106008;-58
2023/03/30 11:06:39;;;;;;;83.47;7.07;;;;;;;;;;5020772;28;20033;-59
2023/03/30 11:09:08;;;;;;;87.50;6.97;;;;;;;;;;5020797;28;20017;-59
2023/03/30 11:11:36;;;;;;;80.13;6.70;;;;;;;;;;5020727;28;20410;-57
2023/03/30 11:14:04;;;;;;;136.60;9.38;;;;;;;;;;5019668;28;20013;-58
2023/03/30 11:16:49;;;;;;;83.45;6.75;;;;;;;;;;5020241;28;20494;-58
2023/03/30 11:19:33;;;;;;;93.78;8.07;;;;;;;;;;5021392;28;20017;-58
2023/03/30 11:22:03;;;;;;;100.72;8.57;;;;;;;;;;5020728;28;20033;-59
2023/03/30 11:24:29;;;;;;;77.97;7.72;;;;;;;;;;5019934;28;20124;-59
2023/03/30 11:27:00;;;;;;;71.60;7.72;;;;;;;;;;5020468;28;20039;-58
2023/03/30 11:29:25;;;;;;;102.05;8.57;;;;;;;;;;5020781;28;20060;-58
2023/03/30 11:32:09;;;;;;;78.50;6.18;;;;;;;;;;5020774;28;20403;-59
2023/03/30 11:34:38;;;;;;;84.72;7.15;;;;;;;;;;5020066;28;20021;-59
2023/03/30 11:37:16;;;;;;;63.78;6.07;;;;;;;;;;5019986;28;20025;-58
2023/03/30 11:39:52;;;;;;;97.60;8.63;;;;;;;;;;5020286;28;20041;-60
2023/03/30 11:42:23;;;;;;;75.65;6.47;;;;;;;;;;5021124;28;20099;-59
2023/03/30 11:44:50;;;;;;;93.30;7.30;;;;;;;;;;5019903;28;20589;-59
2023/03/30 11:47:19;;;;;;;85.90;7.50;;;;;;;;;;5019597;28;20037;-58
2023/03/30 11:49:50;;;;;;;94.57;7.20;;;;;;;;;;5019781;28;20603;-58
2023/03/30 11:52:19;;;;;;;74.80;7.05;;;;;;;;;;5019771;28;20044;-59
2023/03/30 11:54:59;;;;;;;78.88;7.38;;;;;;;;;;5019277;28;20018;-58
2023/03/30 11:57:34;;;;;;;74.10;6.10;;;;;;;;;;5019501;28;20030;-56
2023/03/30 12:00:18;;;;;;;111.68;7.78;;;;;;;;;;5019764;28;20026;-57
2023/03/30 12:02:50;;;;;;;82.18;7.35;;;;;;;;;;5019736;28;20490;-57
2023/03/30 12:05:29;;;;;;;88.18;7.50;;;;;;;;;;5015734;28;20033;-59
2023/03/30 12:08:18;;;;;;;92.63;7.43;;;;;;;;;;5019612;28;20014;-57
2023/03/30 12:10:45;;;;;;;61.75;6.72;;;;;;;;;;5019633;28;20592;-58
2023/03/30 12:13:11;;;;;;;77.78;7.15;;;;;;;;;;5019477;28;20017;-59
2023/03/30 12:15:36;;;;;;;90.53;7.63;;;;;;;;;;5018016;28;20123;-58
2023/03/30 12:18:11;;;;;;;77.82;7.13;;;;;;;;;;5019855;28;20136;-58
2023/03/30 12:20:43;;;;;;;101.38;7.78;;;;;;;;;;5019045;28;20072;-58
2023/03/30 12:23:08;;;;;;;;;;;;;;;;;;5020356;28;20022;-58
2023/03/30 12:25:39;;;;;;;105.28;8.07;;;;;;;;;;5018002;28;19919;-59
2023/03/30 12:28:08;;;;;;;88.70;7.50;;;;;;;;;;5020038;28;20025;-59
2023/03/30 12:30:42;;;;;;;84.97;7.72;;;;;;;;;;5018885;28;20067;-59
2023/03/30 12:33:12;;;;;;;78.25;7.20;;;;;;;;;;5017113;28;20029;-58
2023/03/30 12:35:48;;;;;;;93.90;7.85;;;;;;;;;;5016963;28;20124;-58
2023/03/30 12:38:16;;;;;;;81.25;7.07;;;;;;;;;;5019616;28;20025;-58
2023/03/30 12:40:45;;;;;;;68.82;6.55;;;;;;;;;;5018876;28;20033;-59
2023/03/30 12:43:29;;;;;;;91.25;7.57;;;;;;;;;;5019234;28;20127;-59
2023/03/30 12:46:04;;;;;;;98.53;7.55;;;;;;;;;;5017844;28;20414;-59
2023/03/30 12:48:49;;;;;;;96.65;7.50;;;;;;;;;;5018634;28;20032;-59
2023/03/30 12:51:53;;;;;;;110.70;8.32;;;;;;;;;;5018105;28;20061;-59
2023/03/30 12:54:37;;;;;;;93.32;7.07;;;;;;;;;;4994951;28;20337;-60
2023/03/30 12:57:21;;;;;;;61.47;5.68;;;;;;;;;;4995522;28;20045;-60
2023/03/30 12:59:46;;;;;;;76.28;5.50;;;;;;;;;;5012056;28;20580;-59
2023/03/30 13:02:17;;;;;;;82.13;7.00;;;;;;;;;;5018267;28;20041;-60
2023/03/30 13:04:45;;;;;;;81.20;6.00;;;;;;;;;;5017847;28;20128;-58
2023/03/30 13:07:16;;;;;;;76.03;6.43;;;;;;;;;;5018543;28;20034;-58
2023/03/30 13:09:58;;;;;;;67.03;6.05;;;;;;;;;;5018760;28;20052;-59
2023/03/30 13:12:26;;;;;;;89.50;6.93;;;;;;;;;;5018571;28;20360;-59
2023/03/30 13:15:02;;;;;;;79.25;5.68;;;;;;;;;;5017563;28;20022;-60
2023/03/30 13:17:46;;;;;;;88.30;6.70;;;;;;;;;;5017463;28;20034;-60
2023/03/30 13:20:16;;;;;;;76.68;6.43;;;;;;;;;;5018206;28;20152;-61
2023/03/30 13:22:52;;;;;;;80.18;6.32;;;;;;;;;;5018677;28;20017;-59
2023/03/30 13:25:26;;;;;;;71.15;5.55;;;;;;;;;;5016796;28;20052;-60
2023/03/30 13:27:55;;;;;;;88.13;6.53;;;;;;;;;;5018537;28;20021;-59
2023/03/30 13:30:25;;;;;;;58.00;4.88;;;;;;;;;;5017464;28;20156;-59
2023/03/30 13:33:17;;;;;;;68.68;5.63;;;;;;;;;;5018588;28;20112;-59
2023/03/30 13:35:52;;;;;;;72.70;5.97;;;;;;;;;;5017588;28;20025;-60
2023/03/30 13:38:33;;;;;;;71.93;5.78;;;;;;;;;;5018150;28;20025;-60
2023/03/30 13:41:01;;;;;;;77.93;6.10;;;;;;;;;;5017992;28;20060;-59
2023/03/30 13:43:38;;;;;;;98.30;7.20;;;;;;;;;;5017882;28;20032;-60
2023/03/30 13:46:16;;;;;;;72.88;5.55;;;;;;;;;;5017532;28;20049;-60
2023/03/30 13:48:41;;;;;;;63.08;5.03;;;;;;;;;;5019147;28;20025;-58
2023/03/30 13:51:12;;;;;;;71.03;5.67;;;;;;;;;;5017803;28;20146;-60
2023/03/30 13:53:40;;;;;;;104.30;7.10;;;;;;;;;;5018021;28;20260;-58
2023/03/30 13:56:06;;;;;;;61.58;5.03;;;;;;;;;;5017946;28;20193;-58
2023/03/30 13:58:32;;;;;;;88.88;6.50;;;;;;;;;;5018050;28;20026;-60
2023/03/30 14:01:00;;;;;;;64.63;5.60;;;;;;;;;;5018590;28;20852;-60
2023/03/30 14:03:30;;;;;;;95.78;6.60;;;;;;;;;;5017727;28;20076;-61
2023/03/30 14:06:16;;;;;;;90.03;6.90;;;;;;;;;;5016141;28;20582;-58
2023/03/30 14:08:43;;;;;;;93.30;6.43;;;;;;;;;;5017463;28;20058;-60
2023/03/30 14:11:17;;;;;;;65.18;5.40;;;;;;;;;;5017797;28;20129;-59
2023/03/30 14:13:43;;;;;;;75.07;5.53;;;;;;;;;;5016779;28;20079;-60
2023/03/30 14:16:10;;;;;;;96.20;6.75;;;;;;;;;;5015919;28;20121;-60
2023/03/30 14:18:35;;;;;;;79.72;6.00;;;;;;;;;;5015698;28;20256;-59
2023/03/30 14:21:14;;;;;;;92.82;6.47;;;;;;;;;;5016894;28;20420;-59
2023/03/30 14:23:42;;;;;;;90.18;6.38;;;;;;;;;;5017276;28;20029;-60
2023/03/30 14:26:15;;;;;;;82.63;6.10;;;;;;;;;;5015685;28;20449;-60
2023/03/30 14:28:41;;;;;;;81.57;6.05;;;;;;;;;;5018115;28;20049;-60
2023/03/30 14:31:17;;;;;;;90.50;6.50;;;;;;;;;;5016561;28;20113;-60
2023/03/30 14:33:43;;;;;;;85.40;6.00;;;;;;;;;;5016196;28;20079;-60
2023/03/30 14:36:11;;;;;;;79.85;6.07;;;;;;;;;;5016045;28;20116;-60
2023/03/30 14:38:44;;;;;;;96.35;6.90;;;;;;;;;;5017110;28;20036;-60